createdAt,value
2017-12-24T00:00:44.019Z,9.02
2017-12-24T00:01:44.004Z,9.04
2017-12-24T00:02:44.014Z,8.97
2017-12-24T00:03:44.024Z,9.00
2017-12-24T00:04:44.024Z,9.02
2017-12-24T00:05:43.993Z,9.00
2017-12-24T00:06:44.067Z,9.00
2017-12-24T00:07:43.999Z,8.99
2017-12-24T00:08:43.981Z,9.02
2017-12-24T00:09:43.985Z,9.06
2017-12-24T00:10:43.995Z,9.06
2017-12-24T00:11:43.977Z,9.08
2017-12-24T00:12:43.974Z,9.08
2017-12-24T00:13:43.961Z,9.03
2017-12-24T00:14:43.956Z,9.00
2017-12-24T00:15:43.956Z,9.03
2017-12-24T00:16:43.947Z,9.02
2017-12-24T00:17:44.507Z,9.08
2017-12-24T00:18:43.973Z,9.06
2017-12-24T00:19:43.951Z,9.02
2017-12-24T00:20:43.942Z,9.06
2017-12-24T00:21:43.935Z,9.06
2017-12-24T00:22:43.933Z,9.02
2017-12-24T00:23:43.929Z,9.13
2017-12-24T00:24:43.939Z,9.03
2017-12-24T00:25:43.950Z,9.03
2017-12-24T00:26:43.926Z,9.03
2017-12-24T00:27:43.917Z,9.02
2017-12-24T00:28:43.915Z,9.00
2017-12-24T00:29:43.901Z,9.03
2017-12-24T00:30:43.917Z,9.02
2017-12-24T00:31:43.897Z,8.97
2017-12-24T00:32:43.893Z,8.94
2017-12-24T00:33:43.890Z,8.97
2017-12-24T00:34:43.889Z,8.94
2017-12-24T00:35:43.916Z,8.94
2017-12-24T00:36:43.893Z,9.10
2017-12-24T00:37:43.876Z,9.06
2017-12-24T00:38:43.886Z,9.04
2017-12-24T00:39:43.872Z,8.99
2017-12-24T00:40:43.866Z,9.00
2017-12-24T00:41:43.888Z,9.03
2017-12-24T00:42:43.859Z,9.06
2017-12-24T00:43:43.852Z,9.02
2017-12-24T00:44:43.853Z,9.06
2017-12-24T00:45:43.847Z,8.99
2017-12-24T00:46:43.846Z,9.08
2017-12-24T00:47:43.841Z,9.08
2017-12-24T00:48:43.840Z,9.06
2017-12-24T00:49:43.845Z,9.04
2017-12-24T00:50:43.829Z,9.04
2017-12-24T00:51:43.831Z,9.11
2017-12-24T00:52:43.854Z,9.08
2017-12-24T00:53:43.820Z,9.10
2017-12-24T00:54:43.820Z,9.04
2017-12-24T00:55:43.813Z,9.06
2017-12-24T00:56:43.814Z,8.97
2017-12-24T00:57:43.807Z,9.04
2017-12-24T00:58:43.804Z,9.02
2017-12-24T00:59:43.826Z,9.04
2017-12-24T01:00:43.816Z,8.97
2017-12-24T01:01:43.793Z,8.97
2017-12-24T01:02:43.787Z,8.99
2017-12-24T01:03:43.837Z,8.97
2017-12-24T01:04:43.793Z,8.95
2017-12-24T01:05:43.807Z,8.88
2017-12-24T01:06:43.783Z,8.84
2017-12-24T01:07:43.820Z,8.85
2017-12-24T01:08:43.831Z,8.85
2017-12-24T01:09:43.811Z,8.85
2017-12-24T01:10:43.764Z,8.92
2017-12-24T01:11:43.758Z,8.85
2017-12-24T01:12:43.752Z,8.78
2017-12-24T01:13:43.748Z,8.79
2017-12-24T01:14:43.763Z,8.67
2017-12-24T01:15:43.739Z,8.69
2017-12-24T01:16:44.519Z,8.60
2017-12-24T01:17:43.764Z,8.56
2017-12-24T01:18:43.727Z,8.55
2017-12-24T01:19:43.764Z,8.55
2017-12-24T01:20:43.717Z,8.53
2017-12-24T01:21:43.747Z,8.52
2017-12-24T01:22:43.710Z,8.44
2017-12-24T01:23:43.708Z,8.58
2017-12-24T01:24:43.708Z,8.56
2017-12-24T01:25:43.700Z,8.44
2017-12-24T01:26:43.711Z,8.45
2017-12-24T01:27:44.526Z,8.46
2017-12-24T01:28:43.699Z,8.48
2017-12-24T01:29:43.693Z,8.42
2017-12-24T01:30:43.684Z,8.42
2017-12-24T01:31:43.679Z,8.44
2017-12-24T01:32:43.672Z,8.34
2017-12-24T01:33:43.692Z,8.38
2017-12-24T01:34:43.668Z,8.36
2017-12-24T01:35:43.657Z,8.31
2017-12-24T01:36:43.662Z,8.33
2017-12-24T01:37:43.718Z,8.30
2017-12-24T01:38:43.677Z,8.31
2017-12-24T01:39:43.655Z,8.36
2017-12-24T01:40:43.641Z,8.41
2017-12-24T01:41:43.631Z,8.31
2017-12-24T01:42:43.654Z,8.33
2017-12-24T01:43:43.631Z,8.44
2017-12-24T01:44:43.618Z,8.33
2017-12-24T01:45:43.627Z,8.33
2017-12-24T01:46:43.611Z,8.33
2017-12-24T01:47:43.653Z,8.33
2017-12-24T01:48:43.627Z,8.34
2017-12-24T01:49:43.596Z,8.33
2017-12-24T01:50:43.629Z,8.36
2017-12-24T01:51:43.593Z,8.37
2017-12-24T01:52:43.588Z,8.36
2017-12-24T01:53:43.599Z,8.31
2017-12-24T01:54:43.576Z,8.31
2017-12-24T01:55:43.579Z,8.45
2017-12-24T01:56:43.570Z,8.44
2017-12-24T01:57:43.565Z,8.48
2017-12-24T01:58:43.557Z,8.51
2017-12-24T01:59:43.554Z,8.36
2017-12-24T02:00:43.553Z,8.34
2017-12-24T02:01:43.545Z,8.38
2017-12-24T02:02:43.544Z,8.42
2017-12-24T02:03:43.541Z,8.38
2017-12-24T02:04:43.539Z,8.36
2017-12-24T02:05:43.530Z,8.31
2017-12-24T02:06:43.528Z,8.44
2017-12-24T02:07:43.524Z,8.38
2017-12-24T02:08:43.518Z,8.36
2017-12-24T02:09:43.572Z,8.31
2017-12-24T02:10:43.531Z,8.36
2017-12-24T02:11:43.507Z,8.31
2017-12-24T02:12:43.499Z,8.36
2017-12-24T02:13:43.495Z,8.33
2017-12-24T02:14:43.489Z,8.38
2017-12-24T02:15:43.502Z,8.28
2017-12-24T02:16:43.487Z,8.36
2017-12-24T02:17:43.480Z,8.36
2017-12-24T02:18:43.474Z,8.45
2017-12-24T02:19:43.473Z,8.26
2017-12-24T02:20:43.463Z,8.31
2017-12-24T02:21:44.034Z,8.36
2017-12-24T02:22:43.486Z,8.30
2017-12-24T02:23:43.450Z,8.24
2017-12-24T02:24:43.454Z,8.27
2017-12-24T02:25:43.466Z,8.26
2017-12-24T02:26:43.440Z,8.27
2017-12-24T02:27:43.434Z,8.28
2017-12-24T02:28:43.442Z,8.44
2017-12-24T02:29:43.445Z,8.42
2017-12-24T02:30:43.449Z,8.28
2017-12-24T02:31:43.440Z,8.30
2017-12-24T02:32:43.413Z,8.36
2017-12-24T02:33:43.420Z,8.33
2017-12-24T02:34:43.408Z,8.31
2017-12-24T02:35:43.409Z,8.34
2017-12-24T02:36:43.405Z,8.34
2017-12-24T02:37:44.019Z,8.33
2017-12-24T02:38:43.402Z,8.36
2017-12-24T02:39:43.382Z,8.33
2017-12-24T02:40:43.379Z,8.41
2017-12-24T02:41:43.376Z,8.42
2017-12-24T02:42:43.377Z,8.41
2017-12-24T02:43:43.370Z,8.48
2017-12-24T02:44:43.375Z,8.42
2017-12-24T02:45:43.363Z,8.46
2017-12-24T02:46:43.355Z,8.45
2017-12-24T02:47:43.373Z,8.45
2017-12-24T02:48:43.343Z,8.46
2017-12-24T02:49:43.344Z,8.52
2017-12-24T02:50:43.335Z,8.44
2017-12-24T02:51:43.333Z,8.48
2017-12-24T02:52:43.327Z,8.44
2017-12-24T02:53:43.334Z,8.51
2017-12-24T02:54:43.346Z,8.53
2017-12-24T02:55:43.332Z,8.52
2017-12-24T02:56:43.312Z,8.55
2017-12-24T02:57:43.308Z,8.52
2017-12-24T02:58:43.302Z,8.56
2017-12-24T02:59:43.300Z,8.51
2017-12-24T03:00:43.299Z,8.55
2017-12-24T03:01:43.300Z,8.55
2017-12-24T03:02:43.298Z,8.56
2017-12-24T03:03:43.282Z,8.55
2017-12-24T03:04:44.033Z,8.61
2017-12-24T03:05:43.283Z,8.67
2017-12-24T03:06:43.272Z,8.58
2017-12-24T03:07:43.265Z,8.55
2017-12-24T03:08:43.262Z,8.64
2017-12-24T03:09:43.274Z,8.55
2017-12-24T03:10:43.265Z,8.67
2017-12-24T03:11:43.252Z,8.61
2017-12-24T03:12:43.255Z,8.58
2017-12-24T03:13:43.265Z,8.63
2017-12-24T03:14:43.239Z,8.58
2017-12-24T03:15:43.233Z,8.64
2017-12-24T03:16:43.232Z,8.55
2017-12-24T03:17:43.231Z,8.67
2017-12-24T03:18:43.231Z,8.56
2017-12-24T03:19:43.260Z,8.56
2017-12-24T03:20:43.219Z,8.55
2017-12-24T03:21:43.211Z,8.56
2017-12-24T03:22:43.216Z,8.55
2017-12-24T03:23:43.236Z,8.55
2017-12-24T03:24:43.199Z,8.58
2017-12-24T03:25:43.198Z,8.52
2017-12-24T03:26:43.192Z,8.61
2017-12-24T03:27:43.186Z,8.60
2017-12-24T03:28:43.210Z,8.66
2017-12-24T03:29:43.185Z,8.56
2017-12-24T03:30:43.182Z,8.61
2017-12-24T03:31:43.178Z,8.67
2017-12-24T03:32:43.173Z,8.63
2017-12-24T03:33:43.182Z,8.67
2017-12-24T03:34:43.177Z,8.67
2017-12-24T03:35:43.158Z,8.58
2017-12-24T03:36:43.179Z,8.58
2017-12-24T03:37:43.171Z,8.61
2017-12-24T03:38:43.146Z,8.55
2017-12-24T03:39:43.145Z,8.58
2017-12-24T03:40:43.143Z,8.60
2017-12-24T03:41:43.138Z,8.61
2017-12-24T03:42:43.132Z,8.66
2017-12-24T03:43:43.126Z,8.64
2017-12-24T03:44:43.121Z,8.63
2017-12-24T03:45:43.119Z,8.70
2017-12-24T03:46:43.117Z,8.70
2017-12-24T03:47:43.114Z,8.64
2017-12-24T03:48:43.108Z,8.69
2017-12-24T03:49:43.112Z,8.66
2017-12-24T03:50:43.100Z,8.64
2017-12-24T03:51:43.094Z,8.67
2017-12-24T03:52:43.094Z,8.70
2017-12-24T03:53:43.090Z,8.69
2017-12-24T03:54:43.081Z,8.73
2017-12-24T03:55:43.102Z,8.67
2017-12-24T03:56:43.078Z,8.71
2017-12-24T03:57:43.082Z,8.67
2017-12-24T03:58:43.102Z,8.69
2017-12-24T03:59:43.062Z,8.64
2017-12-24T04:00:43.061Z,8.66
2017-12-24T04:01:43.055Z,8.69
2017-12-24T04:02:43.054Z,8.67
2017-12-24T04:03:43.045Z,8.61
2017-12-24T04:04:43.046Z,8.64
2017-12-24T04:05:43.065Z,8.70
2017-12-24T04:06:43.054Z,8.73
2017-12-24T04:07:43.036Z,8.71
2017-12-24T04:08:43.030Z,8.76
2017-12-24T04:09:43.031Z,8.69
2017-12-24T04:10:43.021Z,8.70
2017-12-24T04:11:43.040Z,8.64
2017-12-24T04:12:43.052Z,8.69
2017-12-24T04:13:43.018Z,8.73
2017-12-24T04:14:43.005Z,8.66
2017-12-24T04:15:43.051Z,8.70
2017-12-24T04:16:43.005Z,8.79
2017-12-24T04:17:43.044Z,8.76
2017-12-24T04:18:42.991Z,8.70
2017-12-24T04:19:43.042Z,8.76
2017-12-24T04:20:42.984Z,8.78
2017-12-24T04:21:42.984Z,8.73
2017-12-24T04:22:42.975Z,8.67
2017-12-24T04:23:42.973Z,8.74
2017-12-24T04:24:42.978Z,8.70
2017-12-24T04:25:42.961Z,8.66
2017-12-24T04:26:42.986Z,8.66
2017-12-24T04:27:42.959Z,8.64
2017-12-24T04:28:42.971Z,8.66
2017-12-24T04:29:42.948Z,8.66
2017-12-24T04:30:42.979Z,8.63
2017-12-24T04:31:42.945Z,8.71
2017-12-24T04:32:42.941Z,8.63
2017-12-24T04:33:42.935Z,8.74
2017-12-24T04:34:42.941Z,8.67
2017-12-24T04:35:42.942Z,8.70
2017-12-24T04:36:42.924Z,8.71
2017-12-24T04:37:42.996Z,8.66
2017-12-24T04:38:42.915Z,8.70
2017-12-24T04:39:42.913Z,8.66
2017-12-24T04:40:42.904Z,8.67
2017-12-24T04:41:42.900Z,8.71
2017-12-24T04:42:42.909Z,8.70
2017-12-24T04:43:42.899Z,8.69
2017-12-24T04:44:42.895Z,8.66
2017-12-24T04:45:42.890Z,8.60
2017-12-24T04:46:42.886Z,8.60
2017-12-24T04:47:42.886Z,8.64
2017-12-24T04:48:42.928Z,8.70
2017-12-24T04:49:42.901Z,8.66
2017-12-24T04:50:42.875Z,8.70
2017-12-24T04:51:42.863Z,8.63
2017-12-24T04:52:42.859Z,8.67
2017-12-24T04:53:42.859Z,8.66
2017-12-24T04:54:42.858Z,8.67
2017-12-24T04:55:42.848Z,8.73
2017-12-24T04:56:42.847Z,8.74
2017-12-24T04:57:42.839Z,8.70
2017-12-24T04:58:42.847Z,8.74
2017-12-24T04:59:42.853Z,8.67
2017-12-24T05:00:42.848Z,8.64
2017-12-24T05:01:42.825Z,8.70
2017-12-24T05:02:42.819Z,8.70
2017-12-24T05:03:42.819Z,8.67
2017-12-24T05:04:42.822Z,8.61
2017-12-24T05:05:42.839Z,8.73
2017-12-24T05:06:42.805Z,8.63
2017-12-24T05:07:42.805Z,8.70
2017-12-24T05:08:42.797Z,8.67
2017-12-24T05:09:42.800Z,8.64
2017-12-24T05:10:42.793Z,8.64
2017-12-24T05:11:42.784Z,8.66
2017-12-24T05:12:42.793Z,8.71
2017-12-24T05:13:42.782Z,8.67
2017-12-24T05:14:42.772Z,8.74
2017-12-24T05:15:42.769Z,8.81
2017-12-24T05:16:42.793Z,8.70
2017-12-24T05:17:42.766Z,8.66
2017-12-24T05:18:42.760Z,8.69
2017-12-24T05:19:42.773Z,8.73
2017-12-24T05:20:42.759Z,8.70
2017-12-24T05:21:42.749Z,8.67
2017-12-24T05:22:42.754Z,8.70
2017-12-24T05:23:42.743Z,8.66
2017-12-24T05:24:42.736Z,8.67
2017-12-24T05:25:42.730Z,8.70
2017-12-24T05:26:42.756Z,8.67
2017-12-24T05:27:42.732Z,8.64
2017-12-24T05:28:42.717Z,8.63
2017-12-24T05:29:42.714Z,8.74
2017-12-24T05:30:42.717Z,8.78
2017-12-24T05:31:42.706Z,8.74
2017-12-24T05:32:42.705Z,8.78
2017-12-24T05:33:42.701Z,8.71
2017-12-24T05:34:42.705Z,8.74
2017-12-24T05:35:42.693Z,8.64
2017-12-24T05:36:42.716Z,8.67
2017-12-24T05:37:42.687Z,8.64
2017-12-24T05:38:42.715Z,8.70
2017-12-24T05:39:42.709Z,8.78
2017-12-24T05:40:42.684Z,8.78
2017-12-24T05:41:42.672Z,8.81
2017-12-24T05:42:42.682Z,8.63
2017-12-24T05:43:42.670Z,8.71
2017-12-24T05:44:42.722Z,8.69
2017-12-24T05:45:42.652Z,8.66
2017-12-24T05:46:42.653Z,8.73
2017-12-24T05:47:42.666Z,8.69
2017-12-24T05:48:42.644Z,8.70
2017-12-24T05:49:42.657Z,8.66
2017-12-24T05:50:42.634Z,8.70
2017-12-24T05:51:42.648Z,8.69
2017-12-24T05:52:42.628Z,8.70
2017-12-24T05:53:42.680Z,8.74
2017-12-24T05:54:42.622Z,8.69
2017-12-24T05:55:42.616Z,8.73
2017-12-24T05:56:42.612Z,8.78
2017-12-24T05:57:42.609Z,8.73
2017-12-24T05:58:42.625Z,8.67
2017-12-24T05:59:42.625Z,8.69
2017-12-24T06:00:42.627Z,8.64
2017-12-24T06:01:42.592Z,8.66
2017-12-24T06:02:42.593Z,8.69
2017-12-24T06:03:42.585Z,8.67
2017-12-24T06:04:42.584Z,8.69
2017-12-24T06:05:42.594Z,8.67
2017-12-24T06:06:42.569Z,8.71
2017-12-24T06:07:42.568Z,8.64
2017-12-24T06:08:42.630Z,8.58
2017-12-24T06:09:42.563Z,8.67
2017-12-24T06:10:42.578Z,8.67
2017-12-24T06:11:42.569Z,8.64
2017-12-24T06:12:42.550Z,8.63
2017-12-24T06:13:42.579Z,8.63
2017-12-24T06:14:42.569Z,8.67
2017-12-24T06:15:42.545Z,8.66
2017-12-24T06:16:42.540Z,8.67
2017-12-24T06:17:42.530Z,8.67
2017-12-24T06:18:42.528Z,8.67
2017-12-24T06:19:42.534Z,8.67
2017-12-24T06:20:42.538Z,8.69
2017-12-24T06:21:42.527Z,8.66
2017-12-24T06:22:42.515Z,8.67
2017-12-24T06:23:42.546Z,8.69
2017-12-24T06:24:42.521Z,8.67
2017-12-24T06:25:42.524Z,8.69
2017-12-24T06:26:42.528Z,8.67
2017-12-24T06:27:42.496Z,8.56
2017-12-24T06:28:42.509Z,8.56
2017-12-24T06:29:42.495Z,8.63
2017-12-24T06:30:42.480Z,8.64
2017-12-24T06:31:42.475Z,8.71
2017-12-24T06:32:42.479Z,8.64
2017-12-24T06:33:42.475Z,8.63
2017-12-24T06:34:42.471Z,8.66
2017-12-24T06:35:42.468Z,8.73
2017-12-24T06:36:42.470Z,8.63
2017-12-24T06:37:42.451Z,8.64
2017-12-24T06:38:42.456Z,8.67
2017-12-24T06:39:42.449Z,8.69
2017-12-24T06:40:42.439Z,8.71
2017-12-24T06:41:42.439Z,8.71
2017-12-24T06:42:42.435Z,8.67
2017-12-24T06:43:42.435Z,8.70
2017-12-24T06:44:42.431Z,8.70
2017-12-24T06:45:42.490Z,8.67
2017-12-24T06:46:42.421Z,8.64
2017-12-24T06:47:42.416Z,8.71
2017-12-24T06:48:42.409Z,8.74
2017-12-24T06:49:42.412Z,8.73
2017-12-24T06:50:42.449Z,8.66
2017-12-24T06:51:42.396Z,8.74
2017-12-24T06:52:42.404Z,8.71
2017-12-24T06:53:42.396Z,8.74
2017-12-24T06:54:42.430Z,8.76
2017-12-24T06:55:42.384Z,8.73
2017-12-24T06:56:42.397Z,8.78
2017-12-24T06:57:42.386Z,8.71
2017-12-24T06:58:42.409Z,8.70
2017-12-24T06:59:42.377Z,8.81
2017-12-24T07:00:42.368Z,8.78
2017-12-24T07:01:42.377Z,8.73
2017-12-24T07:02:42.371Z,8.81
2017-12-24T07:03:42.356Z,8.79
2017-12-24T07:04:42.358Z,8.81
2017-12-24T07:05:42.352Z,8.79
2017-12-24T07:06:42.352Z,8.81
2017-12-24T07:07:42.364Z,8.73
2017-12-24T07:08:42.339Z,8.79
2017-12-24T07:09:42.334Z,8.81
2017-12-24T07:10:42.352Z,8.88
2017-12-24T07:11:42.333Z,8.85
2017-12-24T07:12:42.321Z,8.87
2017-12-24T07:13:42.338Z,8.70
2017-12-24T07:14:42.321Z,8.82
2017-12-24T07:15:42.315Z,8.79
2017-12-24T07:16:42.346Z,8.87
2017-12-24T07:17:42.340Z,8.74
2017-12-24T07:18:42.371Z,8.79
2017-12-24T07:19:42.297Z,8.70
2017-12-24T07:20:42.318Z,8.70
2017-12-24T07:21:42.290Z,8.81
2017-12-24T07:22:42.292Z,8.78
2017-12-24T07:23:42.279Z,8.74
2017-12-24T07:24:42.281Z,8.67
2017-12-24T07:25:42.282Z,8.78
2017-12-24T07:26:42.280Z,8.78
2017-12-24T07:27:42.274Z,8.89
2017-12-24T07:28:42.271Z,8.85
2017-12-24T07:29:42.272Z,8.70
2017-12-24T07:30:42.261Z,8.91
2017-12-24T07:31:42.250Z,8.78
2017-12-24T07:32:42.253Z,8.89
2017-12-24T07:33:42.242Z,8.84
2017-12-24T07:34:42.258Z,8.84
2017-12-24T07:35:42.247Z,8.85
2017-12-24T07:36:42.232Z,8.71
2017-12-24T07:37:42.232Z,8.74
2017-12-24T07:38:42.229Z,8.78
2017-12-24T07:39:42.226Z,8.74
2017-12-24T07:40:42.252Z,8.78
2017-12-24T07:41:42.227Z,8.87
2017-12-24T07:42:42.219Z,8.78
2017-12-24T07:43:42.232Z,8.76
2017-12-24T07:44:42.215Z,8.78
2017-12-24T07:45:42.200Z,8.76
2017-12-24T07:46:42.202Z,8.74
2017-12-24T07:47:42.223Z,8.92
2017-12-24T07:48:42.195Z,8.87
2017-12-24T07:49:42.195Z,8.89
2017-12-24T07:50:42.196Z,8.89
2017-12-24T07:51:42.218Z,8.84
2017-12-24T07:52:42.191Z,8.92
2017-12-24T07:53:42.170Z,8.94
2017-12-24T07:54:42.196Z,8.87
2017-12-24T07:55:42.185Z,8.94
2017-12-24T07:56:42.159Z,9.00
2017-12-24T07:57:42.166Z,8.94
2017-12-24T07:58:42.182Z,8.89
2017-12-24T07:59:42.154Z,8.91
2017-12-24T08:00:42.143Z,8.88
2017-12-24T08:01:42.138Z,8.87
2017-12-24T08:02:42.162Z,8.89
2017-12-24T08:03:42.141Z,8.97
2017-12-24T08:04:43.748Z,8.94
2017-12-24T08:05:42.150Z,8.91
2017-12-24T08:06:42.158Z,8.97
2017-12-24T08:07:42.119Z,9.00
2017-12-24T08:08:42.124Z,8.99
2017-12-24T08:09:42.128Z,9.03
2017-12-24T08:10:42.118Z,8.92
2017-12-24T08:11:42.127Z,8.94
2017-12-24T08:12:42.114Z,8.91
2017-12-24T08:13:42.100Z,9.04
2017-12-24T08:14:42.122Z,9.04
2017-12-24T08:15:42.092Z,9.00
2017-12-24T08:16:42.092Z,9.04
2017-12-24T08:17:42.122Z,9.13
2017-12-24T08:18:42.084Z,9.06
2017-12-24T08:19:42.080Z,9.00
2017-12-24T08:20:42.097Z,9.00
2017-12-24T08:21:42.657Z,9.04
2017-12-24T08:22:42.100Z,9.03
2017-12-24T08:23:42.067Z,9.02
2017-12-24T08:24:42.097Z,9.02
2017-12-24T08:25:42.067Z,9.03
2017-12-24T08:26:42.054Z,9.10
2017-12-24T08:27:42.054Z,9.04
2017-12-24T08:28:42.045Z,9.06
2017-12-24T08:29:42.045Z,9.10
2017-12-24T08:30:42.054Z,9.13
2017-12-24T08:31:42.038Z,9.13
2017-12-24T08:32:42.033Z,9.18
2017-12-24T08:33:42.025Z,9.16
2017-12-24T08:34:42.027Z,9.14
2017-12-24T08:35:42.022Z,9.13
2017-12-24T08:36:42.018Z,9.14
2017-12-24T08:37:42.022Z,9.25
2017-12-24T08:38:42.012Z,9.25
2017-12-24T08:39:42.032Z,9.31
2017-12-24T08:40:42.009Z,9.26
2017-12-24T08:41:42.054Z,9.23
2017-12-24T08:42:42.050Z,9.23
2017-12-24T08:43:42.000Z,9.31
2017-12-24T08:44:41.993Z,9.36
2017-12-24T08:45:42.126Z,9.25
2017-12-24T08:46:42.107Z,9.23
2017-12-24T08:47:42.131Z,9.21
2017-12-24T08:48:42.019Z,9.23
2017-12-24T08:49:42.047Z,9.26
2017-12-24T08:50:42.057Z,9.29
2017-12-24T08:51:42.148Z,9.25
2017-12-24T08:52:42.090Z,9.29
2017-12-24T08:53:42.169Z,9.16
2017-12-24T08:54:41.993Z,9.19
2017-12-24T08:55:41.976Z,9.23
2017-12-24T08:56:41.961Z,9.22
2017-12-24T08:57:41.965Z,9.25
2017-12-24T08:58:41.945Z,9.25
2017-12-24T08:59:41.940Z,9.32
2017-12-24T09:00:41.954Z,9.32
2017-12-24T09:01:41.939Z,9.22
2017-12-24T09:02:41.943Z,9.31
2017-12-24T09:03:41.929Z,9.25
2017-12-24T09:04:41.934Z,9.25
2017-12-24T09:05:41.926Z,9.26
2017-12-24T09:06:41.935Z,9.26
2017-12-24T09:07:41.944Z,9.34
2017-12-24T09:08:41.924Z,9.34
2017-12-24T09:09:41.925Z,9.32
2017-12-24T09:10:41.908Z,9.28
2017-12-24T09:11:41.899Z,9.23
2017-12-24T09:12:41.896Z,9.23
2017-12-24T09:13:41.905Z,9.26
2017-12-24T09:14:41.894Z,9.26
2017-12-24T09:15:42.684Z,9.26
2017-12-24T09:16:41.919Z,9.34
2017-12-24T09:17:41.934Z,9.29
2017-12-24T09:18:41.881Z,9.32
2017-12-24T09:19:41.887Z,9.28
2017-12-24T09:20:41.887Z,9.37
2017-12-24T09:21:41.878Z,9.40
2017-12-24T09:22:41.869Z,9.47
2017-12-24T09:23:41.874Z,9.43
2017-12-24T09:24:41.874Z,9.36
2017-12-24T09:25:41.855Z,9.32
2017-12-24T09:26:41.864Z,9.31
2017-12-24T09:27:41.854Z,9.23
2017-12-24T09:28:41.864Z,9.29
2017-12-24T09:29:41.852Z,9.43
2017-12-24T09:30:41.845Z,9.44
2017-12-24T09:31:41.842Z,9.46
2017-12-24T09:32:41.897Z,9.44
2017-12-24T09:33:41.832Z,9.46
2017-12-24T09:34:41.835Z,9.46
2017-12-24T09:35:41.824Z,9.44
2017-12-24T09:36:41.825Z,9.46
2017-12-24T09:37:41.821Z,9.41
2017-12-24T09:38:41.824Z,9.43
2017-12-24T09:39:41.812Z,9.37
2017-12-24T09:41:41.880Z,9.43
2017-12-24T09:42:41.900Z,9.48
2017-12-24T09:43:41.829Z,9.43
2017-12-24T09:44:41.827Z,9.47
2017-12-24T09:45:41.835Z,9.39
2017-12-24T09:46:41.841Z,9.41
2017-12-24T09:48:02.848Z,9.46
2017-12-24T09:48:41.833Z,9.46
2017-12-24T09:49:41.818Z,9.46
2017-12-24T09:50:41.823Z,9.47
2017-12-24T09:51:41.874Z,9.44
2017-12-24T09:52:42.716Z,9.43
2017-12-24T09:54:02.835Z,9.47
2017-12-24T09:54:41.822Z,9.46
2017-12-24T09:55:41.807Z,9.48
2017-12-24T09:56:41.810Z,9.41
2017-12-24T09:57:41.798Z,9.44
2017-12-24T09:58:41.794Z,9.47
2017-12-24T10:00:02.803Z,9.47
2017-12-24T10:00:41.810Z,9.43
2017-12-24T10:01:41.825Z,9.41
2017-12-24T10:02:44.230Z,9.43
2017-12-24T10:03:42.728Z,9.47
2017-12-24T10:04:41.776Z,9.40
2017-12-24T10:06:02.809Z,9.43
2017-12-24T10:06:44.289Z,9.47
2017-12-24T10:07:41.776Z,9.41
2017-12-24T10:08:41.773Z,9.47
2017-12-24T10:09:41.768Z,9.47
2017-12-24T10:10:41.763Z,9.47
2017-12-24T10:12:02.776Z,9.43
2017-12-24T10:12:41.753Z,9.43
2017-12-24T10:13:41.780Z,9.37
2017-12-24T10:14:42.286Z,9.41
2017-12-24T10:15:41.770Z,9.50
2017-12-24T10:16:41.788Z,9.48
2017-12-24T10:18:02.741Z,9.55
2017-12-24T10:18:41.744Z,9.64
2017-12-24T10:19:41.749Z,9.59
2017-12-24T10:20:41.734Z,9.51
2017-12-24T10:21:41.753Z,9.56
2017-12-24T10:22:41.728Z,9.46
2017-12-24T10:24:02.763Z,9.44
2017-12-24T10:24:41.703Z,9.48
2017-12-24T10:25:41.764Z,9.48
2017-12-24T10:26:41.715Z,9.48
2017-12-24T10:27:41.712Z,9.51
2017-12-24T10:28:41.710Z,9.47
2017-12-24T10:30:02.715Z,9.43
2017-12-24T10:30:41.692Z,9.59
2017-12-24T10:31:42.005Z,9.58
2017-12-24T10:32:41.791Z,9.54
2017-12-24T10:33:41.697Z,9.59
2017-12-24T10:34:41.716Z,9.48
2017-12-24T10:36:02.709Z,9.55
2017-12-24T10:36:41.685Z,9.58
2017-12-24T10:37:41.727Z,9.61
2017-12-24T10:38:41.690Z,9.55
2017-12-24T10:39:41.677Z,9.54
2017-12-24T10:40:41.686Z,9.62
2017-12-24T10:42:02.728Z,9.61
2017-12-24T10:42:41.700Z,9.55
2017-12-24T10:43:41.728Z,9.54
2017-12-24T10:44:41.683Z,9.56
2017-12-24T10:45:41.670Z,9.58
2017-12-24T10:46:42.312Z,9.61
2017-12-24T10:48:02.667Z,9.58
2017-12-24T10:48:41.652Z,9.73
2017-12-24T10:49:41.656Z,9.68
2017-12-24T10:50:41.650Z,9.64
2017-12-24T10:51:42.301Z,9.66
2017-12-24T10:52:41.639Z,9.73
2017-12-24T10:54:02.634Z,9.72
2017-12-24T10:54:41.630Z,9.73
2017-12-24T10:55:41.644Z,9.62
2017-12-24T10:56:41.629Z,9.76
2017-12-24T10:57:41.631Z,9.58
2017-12-24T10:58:41.635Z,9.58
2017-12-24T11:00:02.617Z,9.55
2017-12-24T11:00:41.762Z,9.68
2017-12-24T11:01:41.643Z,9.58
2017-12-24T11:02:41.726Z,9.74
2017-12-24T11:03:41.603Z,9.73
2017-12-24T11:04:41.616Z,9.66
2017-12-24T11:06:03.855Z,9.69
2017-12-24T11:06:41.599Z,9.64
2017-12-24T11:07:42.241Z,9.61
2017-12-24T11:08:41.618Z,9.64
2017-12-24T11:09:41.590Z,9.59
2017-12-24T11:10:41.598Z,9.68
2017-12-24T11:12:02.725Z,9.69
2017-12-24T11:12:41.575Z,9.68
2017-12-24T11:13:41.575Z,9.69
2017-12-24T11:14:41.667Z,9.66
2017-12-24T11:15:41.567Z,9.65
2017-12-24T11:16:41.569Z,9.62
2017-12-24T11:18:02.576Z,9.69
2017-12-24T11:18:41.566Z,9.66
2017-12-24T11:19:41.561Z,9.73
2017-12-24T11:20:41.553Z,9.66
2017-12-24T11:21:41.551Z,9.76
2017-12-24T11:22:41.555Z,9.58
2017-12-24T11:24:02.554Z,9.59
2017-12-24T11:24:41.548Z,9.59
2017-12-24T11:25:41.551Z,9.62
2017-12-24T11:26:41.549Z,9.64
2017-12-24T11:27:41.715Z,9.59
2017-12-24T11:28:41.553Z,9.58
2017-12-24T11:30:02.552Z,9.61
2017-12-24T11:30:41.522Z,9.69
2017-12-24T11:31:41.557Z,9.55
2017-12-24T11:32:41.708Z,9.59
2017-12-24T11:33:41.714Z,9.62
2017-12-24T11:34:41.619Z,9.62
2017-12-24T11:36:02.523Z,9.73
2017-12-24T11:36:41.510Z,9.72
2017-12-24T11:37:43.799Z,9.73
2017-12-24T11:38:41.519Z,9.72
2017-12-24T11:39:41.507Z,9.65
2017-12-24T11:40:41.489Z,9.68
2017-12-24T11:42:02.500Z,9.73
2017-12-24T11:42:41.492Z,9.68
2017-12-24T11:43:41.492Z,9.72
2017-12-24T11:44:41.491Z,9.72
2017-12-24T11:45:41.485Z,9.66
2017-12-24T11:46:41.478Z,9.65
2017-12-24T11:48:02.479Z,9.69
2017-12-24T11:48:41.487Z,9.68
2017-12-24T11:49:41.471Z,9.59
2017-12-24T11:50:41.513Z,9.61
2017-12-24T11:51:41.759Z,9.61
2017-12-24T11:52:41.474Z,9.62
2017-12-24T11:54:02.698Z,9.61
2017-12-24T11:54:41.464Z,9.54
2017-12-24T11:55:41.452Z,9.59
2017-12-24T11:56:43.594Z,9.55
2017-12-24T11:57:41.455Z,9.62
2017-12-24T11:58:41.450Z,9.61
2017-12-24T12:00:02.468Z,9.59
2017-12-24T12:00:41.480Z,9.64
2017-12-24T12:01:41.431Z,9.55
2017-12-24T12:02:41.444Z,9.61
2017-12-24T12:03:41.449Z,9.62
2017-12-24T12:04:41.462Z,9.72
2017-12-24T12:06:02.438Z,9.69
2017-12-24T12:06:42.301Z,9.68
2017-12-24T12:07:41.446Z,9.73
2017-12-24T12:08:41.413Z,9.79
2017-12-24T12:09:41.433Z,9.80
2017-12-24T12:10:41.421Z,9.72
2017-12-24T12:12:02.422Z,9.73
2017-12-24T12:12:41.446Z,9.68
2017-12-24T12:13:41.415Z,9.73
2017-12-24T12:14:41.418Z,9.68
2017-12-24T12:15:41.403Z,9.69
2017-12-24T12:16:41.408Z,9.65
2017-12-24T12:18:02.399Z,9.74
2017-12-24T12:18:41.411Z,9.82
2017-12-24T12:19:41.531Z,9.82
2017-12-24T12:20:41.397Z,9.83
2017-12-24T12:21:41.399Z,9.77
2017-12-24T12:22:42.347Z,9.87
2017-12-24T12:24:02.398Z,9.82
2017-12-24T12:24:41.388Z,9.86
2017-12-24T12:25:42.345Z,9.76
2017-12-24T12:26:41.912Z,9.72
2017-12-24T12:27:41.367Z,9.72
2017-12-24T12:28:41.365Z,9.77
2017-12-24T12:30:02.531Z,9.73
2017-12-24T12:30:42.387Z,9.77
2017-12-24T12:31:41.354Z,9.76
2017-12-24T12:32:41.399Z,9.84
2017-12-24T12:33:42.439Z,9.83
2017-12-24T12:34:41.343Z,9.80
2017-12-24T12:36:02.349Z,9.82
2017-12-24T12:36:41.717Z,9.86
2017-12-24T12:37:41.350Z,9.82
2017-12-24T12:38:41.358Z,9.77
2017-12-24T12:39:41.346Z,9.82
2017-12-24T12:40:41.671Z,9.84
2017-12-24T12:42:02.353Z,9.86
2017-12-24T12:42:41.354Z,9.83
2017-12-24T12:43:41.320Z,9.84
2017-12-24T12:44:41.322Z,9.98
2017-12-24T12:45:41.318Z,9.97
2017-12-24T12:46:41.468Z,9.92
2017-12-24T12:48:02.404Z,9.95
2017-12-24T12:48:41.512Z,9.95
2017-12-24T12:49:41.357Z,9.92
2017-12-24T12:50:41.580Z,9.89
2017-12-24T12:51:41.446Z,9.92
2017-12-24T12:52:41.302Z,10.01
2017-12-24T12:54:02.297Z,9.98
2017-12-24T12:54:41.300Z,9.91
2017-12-24T12:55:41.496Z,9.86
2017-12-24T12:56:41.321Z,9.89
2017-12-24T12:57:41.293Z,9.80
2017-12-24T12:58:41.289Z,9.89
2017-12-24T13:00:02.304Z,9.84
2017-12-24T13:00:41.312Z,9.87
2017-12-24T13:01:41.281Z,9.95
2017-12-24T13:02:41.269Z,9.92
2017-12-24T13:03:41.284Z,9.84
2017-12-24T13:04:41.276Z,9.82
2017-12-24T13:06:02.294Z,9.80
2017-12-24T13:06:41.271Z,9.83
2017-12-24T13:07:41.266Z,9.91
2017-12-24T13:08:41.270Z,9.80
2017-12-24T13:09:41.273Z,9.94
2017-12-24T13:10:41.250Z,9.83
2017-12-24T13:12:02.256Z,9.91
2017-12-24T13:12:41.237Z,9.89
2017-12-24T13:13:41.236Z,9.87
2017-12-24T13:14:41.239Z,9.82
2017-12-24T13:15:41.231Z,9.79
2017-12-24T13:16:41.256Z,9.87
2017-12-24T13:18:02.237Z,9.80
2017-12-24T13:18:41.226Z,9.79
2017-12-24T13:19:41.228Z,9.74